Time;durP1;ratioP1;P1;durP2;ratioP2;P2;SDS_P1;SDS_P2;PMS_P1;PMS_P2;Temp;Humidity;BMP_temperature;BMP_pressure;BME280_temperature;BME280_humidity;BME280_pressure;Samples;Min_cycle;Max_cycle;Signal;HPM_P1;HPM_P2
2022/11/29 00:01:06;;;;;;;1999.90;999.90;;;;;;;3.86;100.00;98076.53;5056384;28;20552;-83
2022/11/29 00:03:32;;;;;;;1999.90;999.90;;;;;;;3.85;100.00;98079.50;5057190;28;20025;-83
2022/11/29 00:06:07;;;;;;;1999.90;999.90;;;;;;;3.80;100.00;98064.00;5057535;28;20142;-81
2022/11/29 00:08:33;;;;;;;1999.90;999.90;;;;;;;3.83;100.00;98068.91;5055464;28;20104;-81
2022/11/29 00:11:11;;;;;;;1999.90;999.90;;;;;;;3.92;100.00;98069.28;5055591;28;20036;-82
2022/11/29 00:13:37;;;;;;;1999.90;999.90;;;;;;;3.90;100.00;98069.56;5054818;28;20453;-83
2022/11/29 00:16:08;;;;;;;1999.90;999.90;;;;;;;3.88;100.00;98069.00;5057338;28;20098;-82
2022/11/29 00:18:34;;;;;;;1999.90;999.90;;;;;;;3.87;100.00;98070.06;5057066;28;20029;-80
2022/11/29 00:21:03;;;;;;;1999.90;999.90;;;;;;;3.92;100.00;98069.28;5054860;28;20052;-81
2022/11/29 00:23:28;;;;;;;1999.90;999.90;;;;;;;3.84;100.00;98061.63;5054990;28;20029;-83
2022/11/29 00:25:54;;;;;;;1999.90;999.90;;;;;;;3.82;100.00;98063.78;5056367;28;20131;-82
2022/11/29 00:28:19;;;;;;;1999.90;999.90;;;;;;;3.76;100.00;98065.56;5055929;28;20113;-81
2022/11/29 00:30:44;;;;;;;1999.90;999.90;;;;;;;3.83;100.00;98068.09;5056430;28;20037;-82
2022/11/29 00:33:10;;;;;;;1999.90;999.90;;;;;;;3.78;100.00;98063.44;5056548;28;20017;-79
2022/11/29 00:35:35;;;;;;;1999.90;999.90;;;;;;;3.74;100.00;98054.19;5056798;28;20033;-84
2022/11/29 00:38:00;;;;;;;1999.90;999.90;;;;;;;3.74;100.00;98056.88;5059300;28;20017;-82
2022/11/29 00:40:26;;;;;;;1999.90;999.90;;;;;;;3.69;100.00;98046.84;5056032;28;20013;-83
2022/11/29 00:42:51;;;;;;;1999.90;999.90;;;;;;;3.62;100.00;98050.78;5057337;28;20033;-82
2022/11/29 00:45:16;;;;;;;1999.90;999.90;;;;;;;3.79;100.00;98065.06;5059351;28;20043;-85
2022/11/29 00:47:42;;;;;;;1999.90;999.90;;;;;;;3.62;100.00;98064.28;5059495;28;20037;-86
2022/11/29 00:50:07;;;;;;;1999.90;999.90;;;;;;;3.57;100.00;98062.31;5061707;28;20044;-82
2022/11/29 00:52:32;;;;;;;1999.90;999.90;;;;;;;3.62;100.00;98061.59;5059371;28;20053;-83
2022/11/29 00:54:58;;;;;;;1999.90;999.90;;;;;;;3.62;100.00;98058.88;5061345;28;20521;-83
2022/11/29 00:57:23;;;;;;;1999.90;999.90;;;;;;;3.61;100.00;98063.47;5059413;28;20021;-82
2022/11/29 00:59:48;;;;;;;1999.90;999.90;;;;;;;3.60;100.00;98063.72;5061649;28;20032;-84
2022/11/29 01:02:14;;;;;;;1999.90;999.90;;;;;;;3.56;100.00;98071.50;5060037;28;20023;-81
2022/11/29 01:04:39;;;;;;;1999.90;999.90;;;;;;;3.51;100.00;98066.00;5061747;28;20081;-83
2022/11/29 01:07:05;;;;;;;1999.90;999.90;;;;;;;3.57;100.00;98064.22;5061584;28;20059;-84
2022/11/29 01:09:30;;;;;;;1999.90;999.90;;;;;;;3.57;100.00;98067.72;5061181;28;20696;-85
2022/11/29 01:11:55;;;;;;;1999.90;999.90;;;;;;;3.50;100.00;98055.47;5060440;28;20029;-84
2022/11/29 01:14:21;;;;;;;1999.90;999.90;;;;;;;3.60;100.00;98071.84;5058305;28;20033;-82
2022/11/29 01:16:46;;;;;;;1999.90;999.90;;;;;;;3.51;100.00;98065.22;5057143;28;20056;-82
2022/11/29 01:19:11;;;;;;;1999.90;999.90;;;;;;;3.50;100.00;98077.09;5057910;28;20021;-83
2022/11/29 01:21:37;;;;;;;1999.90;999.90;;;;;;;3.45;100.00;98067.00;5056741;28;20020;-82
2022/11/29 01:24:02;;;;;;;1999.90;999.90;;;;;;;3.54;100.00;98072.84;5058332;28;20107;-83
2022/11/29 01:26:29;;;;;;;1999.90;999.90;;;;;;;3.51;100.00;98067.91;5058360;28;20052;-79
2022/11/29 01:28:56;;;;;;;1999.90;999.90;;;;;;;3.47;100.00;98053.25;5059017;28;20025;-83
2022/11/29 01:31:35;;;;;;;1999.90;999.90;;;;;;;3.59;100.00;98078.31;5056297;28;20515;-85
2022/11/29 01:34:02;;;;;;;1999.90;999.90;;;;;;;3.54;100.00;98070.91;5059347;28;20060;-81
2022/11/29 01:36:28;;;;;;;1999.90;999.90;;;;;;;3.62;100.00;98072.41;5060751;28;20067;-86
2022/11/29 01:38:54;;;;;;;1999.90;999.90;;;;;;;3.62;100.00;98070.53;5060054;28;20056;-85
2022/11/29 01:41:24;;;;;;;1999.90;999.90;;;;;;;3.56;100.00;98070.69;5059462;28;20021;-81
2022/11/29 01:43:58;;;;;;;1999.90;999.90;;;;;;;3.53;100.00;98074.72;5063642;28;20041;-83
2022/11/29 01:46:25;;;;;;;1999.90;999.90;;;;;;;3.40;100.00;98058.00;5066269;28;20090;-82
2022/11/29 01:48:54;;;;;;;1999.90;999.90;;;;;;;3.50;100.00;98066.28;5066937;28;20052;-86
2022/11/29 01:51:20;;;;;;;1999.90;999.90;;;;;;;3.58;100.00;98080.19;5063138;28;20037;-82
2022/11/29 01:53:47;;;;;;;1999.90;999.90;;;;;;;3.53;100.00;98060.38;5063513;28;20054;-79
2022/11/29 01:56:14;;;;;;;1999.90;999.90;;;;;;;3.52;100.00;98070.38;5065221;28;20039;-82
2022/11/29 01:58:42;;;;;;;1999.90;999.90;;;;;;;3.47;100.00;98077.59;5064173;28;20021;-85
2022/11/29 02:01:08;;;;;;;1999.90;999.90;;;;;;;3.43;100.00;98065.63;5064961;28;20052;-80
2022/11/29 02:03:33;;;;;;;1999.90;999.90;;;;;;;3.42;100.00;98069.38;5063375;28;20025;-84
2022/11/29 02:06:00;;;;;;;1999.90;999.90;;;;;;;3.43;100.00;98063.72;5063362;28;20075;-80
2022/11/29 02:08:30;;;;;;;1999.90;999.90;;;;;;;3.39;100.00;98069.88;5067806;28;20051;-80
2022/11/29 02:11:19;;;;;;;1999.90;999.90;;;;;;;3.34;100.00;98065.22;5068333;28;20048;-83
2022/11/29 02:13:53;;;;;;;1999.90;999.90;;;;;;;3.43;100.00;98068.31;5066133;28;20037;-83
2022/11/29 02:16:37;;;;;;;1999.90;999.90;;;;;;;3.44;100.00;98069.97;5062859;28;20024;-82
2022/11/29 02:19:35;;;;;;;1999.90;999.90;;;;;;;3.42;100.00;98067.50;5061368;28;20060;-82
2022/11/29 02:22:30;;;;;;;1999.90;999.90;;;;;;;3.53;100.00;98076.59;5059922;28;20033;-80
2022/11/29 02:24:59;;;;;;;1999.90;999.90;;;;;;;3.56;100.00;98074.22;5043079;28;20036;-82
2022/11/29 02:27:33;;;;;;;1999.90;999.90;;;;;;;3.52;100.00;98074.94;5058416;28;20037;-85
2022/11/29 02:30:06;;;;;;;1999.90;999.90;;;;;;;3.43;100.00;98079.13;5058922;28;20037;-81
2022/11/29 02:32:59;;;;;;;1999.90;999.90;;;;;;;3.37;100.00;98072.84;5057520;28;20036;-81
2022/11/29 02:35:36;;;;;;;1999.90;999.90;;;;;;;3.41;100.00;98078.56;5058773;28;20025;-83
2022/11/29 02:38:38;;;;;;;1999.90;999.90;;;;;;;3.46;100.00;98084.03;5058076;28;20162;-83
2022/11/29 02:41:22;;;;;;;1999.90;999.90;;;;;;;3.49;100.00;98081.66;5058851;28;20398;-84
2022/11/29 02:44:22;;;;;;;1999.90;999.90;;;;;;;3.40;100.00;98076.91;5058080;28;20040;-82
2022/11/29 02:46:51;;;;;;;1999.90;999.90;;;;;;;3.36;100.00;98082.00;5039642;28;20041;-82
2022/11/29 02:49:25;;;;;;;1999.90;999.90;;;;;;;3.34;100.00;98080.59;5057842;28;20457;-82
2022/11/29 02:52:18;;;;;;;1999.90;999.90;;;;;;;3.40;100.00;98071.50;5058257;28;20045;-80
2022/11/29 02:54:50;;;;;;;1999.90;999.90;;;;;;;3.29;100.00;98080.53;5057505;28;20112;-82
2022/11/29 02:57:43;;;;;;;1999.90;999.90;;;;;;;3.35;100.00;98074.16;5056882;28;20028;-82
2022/11/29 03:00:17;;;;;;;1999.90;999.90;;;;;;;3.29;100.00;98078.63;5058187;28;20039;-79
2022/11/29 03:03:11;;;;;;;1999.90;999.90;;;;;;;3.20;100.00;98083.63;5063453;28;20477;-82
2022/11/29 03:06:01;;;;;;;1999.90;999.90;;;;;;;3.19;100.00;98076.63;5062242;28;20051;-82
2022/11/29 03:08:59;;;;;;;1999.90;999.90;;;;;;;3.31;100.00;98084.63;5061388;28;20504;-83
2022/11/29 03:11:30;;;;;;;1999.90;999.90;;;;;;;3.35;100.00;98074.16;5060852;28;20029;-85
2022/11/29 03:14:32;;;;;;;1999.90;999.90;;;;;;;3.33;100.00;98087.06;5060972;28;20037;-86
2022/11/29 03:17:30;;;;;;;1999.90;999.90;;;;;;;3.24;100.00;98084.78;5056916;28;20135;-84
2022/11/29 03:20:20;;;;;;;1999.90;999.90;;;;;;;3.25;100.00;98085.63;5059864;28;20474;-81
2022/11/29 03:22:57;;;;;;;1999.90;999.90;;;;;;;3.28;100.00;98089.72;5060038;28;20119;-82
2022/11/29 03:25:42;;;;;;;1999.90;999.90;;;;;;;3.31;100.00;98084.63;5059193;28;20573;-83
2022/11/29 03:28:23;;;;;;;1999.90;999.90;;;;;;;3.36;100.00;98083.88;5058451;28;20036;-83
2022/11/29 03:31:03;;;;;;;1999.90;999.90;;;;;;;3.15;100.00;98091.66;5064210;28;20040;-83
2022/11/29 03:33:50;;;;;;;1999.90;999.90;;;;;;;3.28;100.00;98087.81;5066256;28;20060;-82
2022/11/29 03:36:32;;;;;;;1999.90;999.90;;;;;;;3.14;100.00;98078.38;5064026;28;20029;-83
2022/11/29 03:39:04;;;;;;;1999.90;999.90;;;;;;;3.16;100.00;98085.19;5059820;28;20029;-82
2022/11/29 03:41:45;;;;;;;1999.90;999.90;;;;;;;3.13;100.00;98087.56;5060180;28;20017;-78
2022/11/29 03:44:30;;;;;;;1999.90;999.90;;;;;;;3.27;100.00;98088.06;5059735;28;20032;-84
2022/11/29 03:47:06;;;;;;;1999.90;999.90;;;;;;;3.18;100.00;98074.97;5061448;28;20064;-81
2022/11/29 03:49:56;;;;;;;1999.90;999.90;;;;;;;3.09;100.00;98084.53;5060246;28;20038;-81
2022/11/29 03:52:37;;;;;;;1999.90;999.90;;;;;;;3.09;100.00;98087.25;5057564;28;20075;-84
2022/11/29 03:55:11;;;;;;;1999.90;999.90;;;;;;;3.06;100.00;98082.31;5066669;28;20039;-81
2022/11/29 03:57:48;;;;;;;1999.90;999.90;;;;;;;3.09;100.00;98076.44;5066557;28;20025;-82
2022/11/29 04:00:14;;;;;;;1999.90;999.90;;;;;;;3.14;100.00;98076.50;5062120;28;20058;-82
2022/11/29 04:02:46;;;;;;;1999.90;999.90;;;;;;;3.18;100.00;98083.06;5059235;28;20032;-83
2022/11/29 04:05:27;;;;;;;1999.90;999.90;;;;;;;3.23;100.00;98087.72;5058991;28;20037;-85
2022/11/29 04:08:14;;;;;;;1999.90;999.90;;;;;;;3.26;100.00;98086.44;5058081;28;20085;-84
2022/11/29 04:11:16;;;;;;;1999.90;999.90;;;;;;;3.28;100.00;98089.72;5058970;28;20104;-84
2022/11/29 04:14:26;;;;;;;1999.90;999.90;;;;;;;3.21;100.00;98090.69;5056450;28;20087;-83
2022/11/29 04:17:05;;;;;;;1999.90;999.90;;;;;;;3.29;100.00;98084.03;5057877;28;20034;-82
2022/11/29 04:19:39;;;;;;;1999.90;999.90;;;;;;;3.19;100.00;98097.41;5058688;28;20120;-85
2022/11/29 04:22:39;;;;;;;1999.90;999.90;;;;;;;3.09;100.00;98083.72;5058674;28;20033;-81
2022/11/29 04:25:31;;;;;;;1999.90;999.90;;;;;;;3.16;100.00;98093.28;5058608;28;20028;-82
2022/11/29 04:28:15;;;;;;;1999.90;999.90;;;;;;;3.23;100.00;98093.94;5058853;28;20047;-81
2022/11/29 04:31:16;;;;;;;1999.90;999.90;;;;;;;3.28;100.00;98089.72;5059564;28;20037;-81
2022/11/29 04:34:19;;;;;;;1999.90;999.90;;;;;;;3.42;100.00;98085.59;5059134;28;20140;-81
2022/11/29 04:37:03;;;;;;;1999.90;999.90;;;;;;;3.35;100.00;98079.56;5043845;28;20469;-83
2022/11/29 04:39:32;;;;;;;1999.90;999.90;;;;;;;3.32;100.00;98090.88;5059603;28;20037;-84
2022/11/29 04:42:27;;;;;;;1999.90;999.90;;;;;;;3.21;100.00;98085.28;5061286;28;20025;-81
2022/11/29 04:44:55;;;;;;;1999.90;999.90;;;;;;;3.18;100.00;98079.53;5061791;28;20036;-81
2022/11/29 04:47:32;;;;;;;1999.90;999.90;;;;;;;3.30;100.00;98080.28;5063551;28;20056;-86
2022/11/29 04:50:15;;;;;;;1999.90;999.90;;;;;;;3.19;100.00;98082.03;5063354;28;20156;-80
2022/11/29 04:52:56;;;;;;;1999.90;999.90;;;;;;;3.15;100.00;98088.97;5061951;28;20074;-85
2022/11/29 04:55:48;;;;;;;1999.90;999.90;;;;;;;3.14;100.00;98090.00;5061722;28;20056;-80
2022/11/29 04:58:30;;;;;;;1999.90;999.90;;;;;;;3.23;100.00;98091.25;5062858;28;20025;-83
2022/11/29 05:01:14;;;;;;;1999.90;999.90;;;;;;;3.28;100.00;98092.41;5061832;28;20039;-80
2022/11/29 05:03:48;;;;;;;1999.90;999.90;;;;;;;3.20;100.00;98097.16;5063234;28;20021;-80
2022/11/29 05:06:31;;;;;;;1999.90;999.90;;;;;;;3.24;100.00;98097.47;5061794;28;20068;-83
2022/11/29 05:09:24;;;;;;;1999.90;999.90;;;;;;;3.22;100.00;98097.75;5062064;28;20048;-84
2022/11/29 05:11:59;;;;;;;1999.90;999.90;;;;;;;3.34;100.00;98094.13;5064008;28;20432;-79
2022/11/29 05:14:24;;;;;;;;;;;;;;;3.31;100.00;98092.75;5068387;28;20025;-84
2022/11/29 05:17:00;;;;;;;;;;;;;;;3.13;100.00;98092.97;5065304;28;19938;-83
2022/11/29 05:19:34;;;;;;;1999.90;999.90;;;;;;;3.13;100.00;98098.38;5059664;28;19912;-79
2022/11/29 05:22:23;;;;;;;1999.90;999.90;;;;;;;3.32;100.00;98097.06;5052230;28;20025;-78
2022/11/29 05:24:59;;;;;;;1999.90;999.90;;;;;;;3.35;100.00;98093.06;5042077;28;20068;-81
2022/11/29 05:27:31;;;;;;;1999.90;999.90;;;;;;;3.38;100.00;98092.59;5044923;28;20043;-79
2022/11/29 05:30:05;;;;;;;1999.90;999.90;;;;;;;3.37;100.00;98090.94;5050689;28;20039;-77
2022/11/29 05:32:59;;;;;;;1999.90;999.90;;;;;;;3.29;100.00;98097.56;5056478;28;20036;-77
2022/11/29 05:35:37;;;;;;;1999.90;999.90;;;;;;;3.32;100.00;98098.97;5054749;28;20478;-82
2022/11/29 05:38:33;;;;;;;1999.90;999.90;;;;;;;3.38;100.00;98100.69;5053224;28;20029;-82
2022/11/29 05:41:14;;;;;;;1999.90;999.90;;;;;;;3.34;100.00;98094.94;5054103;28;20083;-81
2022/11/29 05:43:58;;;;;;;1999.90;999.90;;;;;;;3.28;100.00;98103.22;5052985;28;20565;-77
2022/11/29 05:46:50;;;;;;;1999.90;999.90;;;;;;;3.31;100.00;98092.75;5051473;28;20063;-79
2022/11/29 05:49:35;;;;;;;1999.90;999.90;;;;;;;3.24;100.00;98098.31;5045535;28;20033;-81
2022/11/29 05:52:21;;;;;;;1999.90;999.90;;;;;;;3.22;100.00;98097.75;5067841;28;20051;-81
2022/11/29 05:55:01;;;;;;;1999.90;999.90;;;;;;;3.21;100.00;98095.25;5070047;28;20057;-84
2022/11/29 05:57:46;;;;;;;1999.90;999.90;;;;;;;3.09;100.00;98091.81;5069535;28;20052;-83
2022/11/29 06:00:13;;;;;;;1999.90;999.90;;;;;;;3.15;100.00;98088.97;5071382;28;20032;-84
2022/11/29 06:03:02;;;;;;;1999.90;999.90;;;;;;;3.14;100.00;98079.22;5073147;28;20043;-86
2022/11/29 06:05:31;;;;;;;1999.90;999.90;;;;;;;3.26;100.00;98087.22;5074527;28;20116;-85
2022/11/29 06:08:09;;;;;;;1999.90;999.90;;;;;;;3.19;100.00;98087.41;5070082;28;20045;-84
2022/11/29 06:10:38;;;;;;;1999.90;999.90;;;;;;;3.16;100.00;98076.28;5068214;28;20025;-81
2022/11/29 06:13:35;;;;;;;1999.90;999.90;;;;;;;3.24;100.00;98081.25;5057452;28;20082;-76
2022/11/29 06:16:03;;;;;;;1999.90;999.90;;;;;;;3.22;100.00;98086.94;5048292;28;20037;-74
2022/11/29 06:18:44;;;;;;;1999.90;999.90;;;;;;;3.22;100.00;98096.91;5053988;28;20021;-87
2022/11/29 06:21:32;;;;;;;1999.90;999.90;;;;;;;3.28;100.00;98089.72;5051999;28;20497;-75
2022/11/29 06:24:15;;;;;;;1999.90;999.90;;;;;;;3.24;100.00;98095.59;5048800;28;20033;-74
2022/11/29 06:27:17;;;;;;;1999.90;999.90;;;;;;;3.14;100.00;98092.72;5048397;28;20033;-76
2022/11/29 06:30:00;;;;;;;1999.90;999.90;;;;;;;3.14;100.00;98090.00;5048508;28;20056;-77
2022/11/29 06:32:49;;;;;;;1999.90;999.90;;;;;;;3.19;100.00;98098.22;5050088;28;20477;-77
2022/11/29 06:35:33;;;;;;;1999.90;999.90;;;;;;;3.05;100.00;98102.28;5048701;28;20091;-75
2022/11/29 06:38:08;;;;;;;1999.90;999.90;;;;;;;3.03;100.00;98095.50;5052270;28;20071;-80
2022/11/29 06:40:34;;;;;;;1999.90;999.90;;;;;;;3.10;100.00;98102.38;5051366;28;20033;-80
2022/11/29 06:42:59;;;;;;;1999.90;999.90;;;;;;;3.14;100.00;98111.63;5049651;28;20035;-77
2022/11/29 06:45:25;;;;;;;1999.90;999.90;;;;;;;3.13;100.00;98109.97;5056814;28;20104;-76
2022/11/29 06:48:02;;;;;;;1999.90;999.90;;;;;;;3.11;100.00;98114.81;5050211;28;20486;-75
2022/11/29 06:50:36;;;;;;;1999.90;999.90;;;;;;;3.22;100.00;98115.84;5051089;28;20470;-75
2022/11/29 06:53:23;;;;;;;1999.90;999.90;;;;;;;3.22;100.00;98124.75;5052555;28;20036;-79
2022/11/29 06:56:31;;;;;;;1999.90;999.90;;;;;;;3.26;100.00;98129.69;5053804;28;20474;-78
2022/11/29 06:59:21;;;;;;;1999.90;999.90;;;;;;;3.12;100.00;98129.97;5053197;28;20029;-80
2022/11/29 07:01:58;;;;;;;1999.90;999.90;;;;;;;3.04;100.00;98124.97;5055799;28;20032;-79
2022/11/29 07:04:38;;;;;;;1999.90;999.90;;;;;;;3.08;100.00;98139.63;5053355;28;20064;-76
2022/11/29 07:07:12;;;;;;;1999.90;999.90;;;;;;;3.22;100.00;98134.75;5052946;28;20053;-75
2022/11/29 07:09:41;;;;;;;1999.90;999.90;;;;;;;3.03;100.00;98126.03;5052193;28;20052;-77
2022/11/29 07:12:07;;;;;;;1999.90;999.90;;;;;;;3.09;100.00;98135.88;5054800;28;20086;-77
2022/11/29 07:14:33;;;;;;;1999.90;999.90;;;;;;;2.97;100.00;98132.41;5054581;28;20129;-79
2022/11/29 07:17:21;;;;;;;1999.90;999.90;;;;;;;3.12;100.00;98138.09;5054263;28;20025;-79
2022/11/29 07:20:24;;;;;;;1999.90;999.90;;;;;;;3.25;100.00;98128.84;5054372;28;20040;-80
2022/11/29 07:23:01;;;;;;;1999.90;999.90;;;;;;;3.19;100.00;98140.66;5016869;28;20026;-85
2022/11/29 07:25:50;;;;;;;1999.90;999.90;;;;;;;3.32;100.00;98145.72;5053845;28;20064;-79
2022/11/29 07:28:42;;;;;;;1999.90;999.90;;;;;;;3.41;100.00;98136.16;5053972;28;20083;-81
2022/11/29 07:31:29;;;;;;;1999.90;999.90;;;;;;;3.30;100.00;98128.09;5052766;28;20039;-76
2022/11/29 07:34:01;;;;;;;1999.90;999.90;;;;;;;3.35;100.00;98136.31;5052874;28;20033;-78
2022/11/29 07:36:48;;;;;;;1999.90;999.90;;;;;;;3.37;100.00;98137.72;5052487;28;20025;-80
2022/11/29 07:39:30;;;;;;;1999.90;999.90;;;;;;;3.42;100.00;98134.25;5052486;28;20043;-76
2022/11/29 07:42:02;;;;;;;1999.90;999.90;;;;;;;3.42;100.00;98135.06;5052980;28;20143;-78
2022/11/29 07:44:51;;;;;;;1999.90;999.90;;;;;;;3.49;100.00;98137.63;5052814;28;20389;-81
2022/11/29 07:47:16;;;;;;;1999.90;999.90;;;;;;;3.50;100.00;98134.69;5052643;28;20037;-77
2022/11/29 07:49:41;;;;;;;1999.90;999.90;;;;;;;3.50;100.00;98136.56;5051235;28;20041;-77
2022/11/29 07:52:15;;;;;;;1999.90;999.90;;;;;;;3.45;100.00;98144.56;5053196;28;20027;-76
2022/11/29 07:54:40;;;;;;;1999.90;999.90;;;;;;;3.40;100.00;98137.22;5052066;28;20025;-77
2022/11/29 07:57:05;;;;;;;1999.90;999.90;;;;;;;3.50;100.00;98141.97;5052571;28;20029;-76
2022/11/29 07:59:31;;;;;;;1999.90;999.90;;;;;;;3.54;100.00;98148.53;5051442;28;20616;-77
2022/11/29 08:01:57;;;;;;;1999.90;999.90;;;;;;;3.55;100.00;98150.97;5052379;28;20136;-75
2022/11/29 08:04:23;;;;;;;1999.90;999.90;;;;;;;3.48;100.00;98147.63;5052209;28;20048;-76
2022/11/29 08:06:49;;;;;;;1999.90;999.90;;;;;;;3.51;100.00;98149.03;5051596;28;20025;-77
2022/11/29 08:09:14;;;;;;;1999.90;999.90;;;;;;;3.55;100.00;98144.75;5052701;28;20021;-74
2022/11/29 08:11:39;;;;;;;1999.90;999.90;;;;;;;3.64;100.00;98144.09;5057197;28;20362;-76
2022/11/29 08:14:05;;;;;;;1999.90;999.90;;;;;;;3.72;100.00;98142.88;5056018;28;20429;-78
2022/11/29 08:16:31;;;;;;;1999.90;999.90;;;;;;;3.76;100.00;98154.81;5044452;28;20136;-76
2022/11/29 08:18:56;;;;;;;1999.90;999.90;;;;;;;3.78;100.00;98155.41;5051254;28;20067;-78
2022/11/29 08:21:21;;;;;;;1999.90;999.90;;;;;;;3.78;100.00;98144.59;5050254;28;20025;-76
2022/11/29 08:23:48;;;;;;;1999.90;999.90;;;;;;;3.89;100.00;98150.97;5050989;28;20024;-77
2022/11/29 08:26:15;;;;;;;1999.90;999.90;;;;;;;3.90;100.00;98148.03;5051013;28;20029;-76
2022/11/29 08:28:41;;;;;;;1999.90;999.90;;;;;;;4.05;100.00;98142.81;5050535;28;20448;-76
2022/11/29 08:31:09;;;;;;;1999.90;999.90;;;;;;;4.10;100.00;98136.69;5050770;28;20039;-77
2022/11/29 08:33:40;;;;;;;1999.90;999.90;;;;;;;4.18;100.00;98145.19;5051104;28;20035;-77
2022/11/29 08:36:07;;;;;;;1999.90;999.90;;;;;;;4.37;100.00;98144.88;5051335;28;20040;-77
2022/11/29 08:38:32;;;;;;;1999.90;999.90;;;;;;;4.44;100.00;98142.81;5049620;28;20061;-76
2022/11/29 08:41:06;;;;;;;1999.90;999.90;;;;;;;4.45;100.00;98145.25;5051818;28;20055;-78
2022/11/29 08:43:32;;;;;;;1999.90;999.90;;;;;;;4.36;100.00;98140.53;5050967;28;20045;-75
2022/11/29 08:45:58;;;;;;;1999.90;999.90;;;;;;;4.36;100.00;98141.34;5051297;28;20111;-78
2022/11/29 08:48:24;;;;;;;1999.90;999.90;;;;;;;4.49;100.00;98151.00;5051723;28;20501;-76
2022/11/29 08:50:53;;;;;;;1999.90;999.90;;;;;;;4.54;100.00;98149.16;5055232;28;20063;-76
2022/11/29 08:56:03;;;;;;;1999.90;999.90;;;;;;;4.63;100.00;98153.09;5051474;28;20505;-76
2022/11/29 08:58:29;;;;;;;1999.90;999.90;;;;;;;4.73;100.00;98157.81;5051092;28;20047;-77
2022/11/29 09:00:54;;;;;;;1999.90;999.90;;;;;;;4.71;100.00;98149.09;5051060;28;20029;-76
2022/11/29 09:06:10;;;;;;;1999.90;999.90;;;;;;;4.39;100.00;98158.97;5050723;28;20484;-76
2022/11/29 09:08:35;;;;;;;1999.90;999.90;;;;;;;4.10;100.00;98161.84;5051368;28;20036;-76
2022/11/29 09:11:13;;;;;;;1999.90;999.90;;;;;;;4.24;100.00;98162.31;5050900;28;20036;-76
2022/11/29 09:13:43;;;;;;;1999.90;999.90;;;;;;;4.36;100.00;98156.78;5051551;28;20033;-76
2022/11/29 09:16:11;;;;;;;1999.90;999.90;;;;;;;4.45;100.00;98160.72;5051054;28;20029;-76
2022/11/29 09:18:38;;;;;;;1999.90;999.90;;;;;;;4.43;100.00;98163.66;5050766;28;20489;-78
2022/11/29 09:21:08;;;;;;;1999.90;999.90;;;;;;;4.30;100.00;98154.00;5050766;28;20032;-76
2022/11/29 09:23:35;;;;;;;1999.90;999.90;;;;;;;4.27;100.00;98157.22;5051110;28;20033;-76
2022/11/29 09:26:01;;;;;;;1999.90;999.90;;;;;;;4.25;100.00;98158.53;5050944;28;20025;-76
2022/11/29 09:28:26;;;;;;;1999.90;999.90;;;;;;;4.24;100.00;98152.31;5050642;28;20430;-77
2022/11/29 09:30:52;;;;;;;1999.90;999.90;;;;;;;4.30;100.00;98145.88;5050791;28;20029;-76
2022/11/29 09:33:17;;;;;;;1999.90;999.90;;;;;;;4.54;100.00;98159.22;5051022;28;20087;-77
2022/11/29 09:35:43;;;;;;;1999.90;999.90;;;;;;;4.52;100.00;98162.16;5050540;28;20534;-77
2022/11/29 09:38:12;;;;;;;1999.90;999.90;;;;;;;4.29;100.00;98152.38;5051148;28;20053;-78
2022/11/29 09:40:52;;;;;;;1999.90;999.90;;;;;;;4.39;100.00;98154.38;5050800;28;20059;-77
2022/11/29 09:43:55;;;;;;;1999.90;999.90;;;;;;;4.48;100.00;98165.63;5050810;28;20060;-76
2022/11/29 09:46:20;;;;;;;1999.90;999.90;;;;;;;4.49;100.00;98161.81;5050897;28;20500;-78
2022/11/29 09:48:57;;;;;;;1999.90;999.90;;;;;;;4.52;100.00;98164.03;5050236;28;20029;-77
2022/11/29 09:51:31;;;;;;;1999.90;999.90;;;;;;;4.59;100.00;98172.81;5050499;28;20041;-77
2022/11/29 09:54:18;;;;;;;1999.90;999.90;;;;;;;4.62;100.00;98175.00;5050333;28;20108;-79
2022/11/29 09:56:48;;;;;;;1999.90;999.90;;;;;;;4.52;100.00;98169.44;5050445;28;20029;-78
2022/11/29 09:59:27;;;;;;;1999.90;999.90;;;;;;;4.54;100.00;98170.03;5050713;28;20130;-76
2022/11/29 10:02:04;;;;;;;1999.90;999.90;;;;;;;4.64;100.00;98164.72;5050547;28;20021;-76
2022/11/29 10:04:35;;;;;;;1999.90;999.90;;;;;;;4.29;100.00;98165.09;5050409;28;20074;-76
2022/11/29 10:07:18;;;;;;;1999.90;999.90;;;;;;;4.37;100.00;98159.25;5049164;28;20028;-77
2022/11/29 10:09:53;;;;;;;1999.90;999.90;;;;;;;4.61;100.00;98170.66;5052252;28;20033;-75
2022/11/29 10:12:22;;;;;;;1999.90;999.90;;;;;;;4.65;100.00;98166.38;5050760;28;20067;-76
2022/11/29 10:14:53;;;;;;;1999.90;999.90;;;;;;;4.58;100.00;98154.91;5051156;28;20028;-76
2022/11/29 10:17:34;;;;;;;1999.90;999.90;;;;;;;4.62;100.00;98162.28;5051892;28;20048;-76
2022/11/29 10:20:11;;;;;;;1999.90;999.90;;;;;;;4.57;100.00;98158.69;5055503;28;20109;-76
2022/11/29 10:22:53;;;;;;;1999.90;999.90;;;;;;;4.69;100.00;98156.69;5052156;28;20041;-79
2022/11/29 10:25:24;;;;;;;1999.90;999.90;;;;;;;4.79;100.00;98151.38;5050959;28;20059;-78
2022/11/29 10:27:51;;;;;;;1999.90;999.90;;;;;;;4.86;100.00;98146.56;5053037;28;20037;-77
2022/11/29 10:30:17;;;;;;;1999.90;999.90;;;;;;;4.83;100.00;98147.91;5058100;28;20033;-76
2022/11/29 10:32:45;;;;;;;1999.90;999.90;;;;;;;4.86;100.00;98146.56;5055096;28;20024;-77
2022/11/29 10:35:17;;;;;;;1999.90;999.90;;;;;;;4.90;100.00;98142.28;5055996;28;20020;-78
2022/11/29 10:37:43;;;;;;;1999.90;999.90;;;;;;;4.91;100.00;98149.34;5056215;28;20029;-76
2022/11/29 10:40:18;;;;;;;1999.90;999.90;;;;;;;4.76;100.00;98141.06;5054313;28;20543;-77
2022/11/29 10:42:47;;;;;;;;;;;;;;;4.71;100.00;98141.81;5060684;28;20498;-78
2022/11/29 10:45:37;;;;;;;1999.90;999.90;;;;;;;4.76;100.00;98136.44;5060375;28;19923;-77
2022/11/29 10:48:15;;;;;;;1999.90;999.90;;;;;;;4.84;100.00;98129.75;5062109;28;20037;-77
2022/11/29 10:50:45;;;;;;;1999.90;999.90;;;;;;;4.59;100.00;98137.59;5057244;28;20032;-78
2022/11/29 10:53:19;;;;;;;1999.90;999.90;;;;;;;4.58;100.00;98147.59;5053997;28;20032;-77
2022/11/29 10:56:02;;;;;;;1999.90;999.90;;;;;;;4.71;100.00;98139.09;5054135;28;20040;-76
2022/11/29 10:58:29;;;;;;;1999.90;999.90;;;;;;;4.80;100.00;98125.91;5054254;28;20029;-77
2022/11/29 11:01:07;;;;;;;1999.90;999.90;;;;;;;4.82;100.00;98126.50;5054047;28;20029;-76
2022/11/29 11:03:49;;;;;;;1999.90;999.90;;;;;;;5.00;100.00;98125.31;5052607;28;20025;-76
2022/11/29 11:06:18;;;;;;;1999.90;999.90;;;;;;;5.02;100.00;98115.84;5055525;28;20109;-80
2022/11/29 11:08:50;;;;;;;1999.90;999.90;;;;;;;4.78;100.00;98117.22;5057637;28;20025;-76
2022/11/29 11:11:26;;;;;;;1999.90;999.90;;;;;;;4.90;100.00;98134.16;5054824;28;20021;-79
2022/11/29 11:14:25;;;;;;;1999.90;999.90;;;;;;;4.89;100.00;98135.22;5053372;28;20031;-77
2022/11/29 11:16:51;;;;;;;1999.90;999.90;;;;;;;4.83;100.00;98130.81;5055641;28;20571;-79
2022/11/29 11:19:35;;;;;;;1999.90;999.90;;;;;;;5.02;100.00;98134.00;5057471;28;20029;-79
2022/11/29 11:22:02;;;;;;;1999.90;999.90;;;;;;;4.96;100.00;98148.56;5056001;28;20022;-78
2022/11/29 11:24:35;;;;;;;1999.90;999.90;;;;;;;4.94;100.00;98143.44;5052229;28;20025;-76
2022/11/29 11:27:00;;;;;;;1999.90;999.90;;;;;;;4.94;100.00;98143.44;5053694;28;20028;-76
2022/11/29 11:29:44;;;;;;;1999.90;999.90;;;;;;;4.92;100.00;98129.28;5053742;28;20037;-75
2022/11/29 11:32:18;;;;;;;1999.90;999.90;;;;;;;4.93;100.00;98147.19;5054323;28;20116;-77
2022/11/29 11:35:24;;;;;;;1999.90;999.90;;;;;;;4.95;100.00;98136.13;5054721;28;20070;-78
2022/11/29 11:37:56;;;;;;;1999.90;999.90;;;;;;;5.02;100.00;98129.41;5053195;28;20037;-75